createdAt,value
2019-03-03T00:01:03.441Z,6.42
2019-03-03T00:03:34.731Z,5.10
2019-03-03T00:06:06.158Z,3.67
2019-03-03T00:08:37.378Z,5.92
2019-03-03T00:11:09.728Z,4.00
2019-03-03T00:13:41.165Z,4.30
2019-03-03T00:16:12.598Z,7.55
2019-03-03T00:18:43.970Z,5.07
2019-03-03T00:21:16.850Z,5.40
2019-03-03T00:23:48.142Z,5.65
2019-03-03T00:26:19.422Z,4.50
2019-03-03T00:28:50.754Z,3.90
2019-03-03T00:31:29.266Z,6.37
2019-03-03T00:34:00.636Z,5.20
2019-03-03T00:36:49.648Z,4.62
2019-03-03T00:39:34.504Z,5.55
2019-03-03T00:42:25.338Z,6.00
2019-03-03T00:45:05.652Z,3.55
2019-03-03T00:47:55.538Z,5.60
2019-03-03T00:50:26.574Z,3.67
2019-03-03T00:53:08.486Z,5.15
2019-03-03T00:55:44.538Z,5.42
2019-03-03T00:58:21.762Z,4.17
2019-03-03T01:01:00.693Z,4.30
2019-03-03T01:03:45.819Z,4.40
2019-03-03T01:06:33.845Z,3.75
2019-03-03T01:09:14.322Z,4.75
2019-03-03T01:11:56.306Z,4.72
2019-03-03T01:14:29.276Z,6.90
2019-03-03T01:17:05.046Z,4.67
2019-03-03T01:19:38.054Z,5.22
2019-03-03T01:22:09.048Z,3.70
2019-03-03T01:24:53.639Z,6.25
2019-03-03T01:27:25.174Z,4.17
2019-03-03T01:29:56.655Z,4.83
2019-03-03T01:32:27.893Z,6.55
2019-03-03T01:34:59.252Z,4.85
2019-03-03T01:37:30.546Z,6.85
2019-03-03T01:40:01.833Z,5.15
2019-03-03T01:42:33.628Z,4.30
2019-03-03T01:45:09.084Z,6.08
2019-03-03T01:47:42.088Z,3.45
2019-03-03T01:50:14.373Z,6.25
2019-03-03T01:52:45.767Z,5.60
2019-03-03T01:55:16.994Z,4.62
2019-03-03T01:57:48.216Z,8.13
2019-03-03T02:00:28.005Z,4.50
2019-03-03T02:03:00.073Z,6.33
2019-03-03T02:05:31.432Z,4.83
2019-03-03T02:08:02.903Z,4.72
2019-03-03T02:10:34.298Z,5.72
2019-03-03T02:13:05.594Z,5.03
2019-03-03T02:15:36.874Z,5.97
2019-03-03T02:18:08.169Z,4.55
2019-03-03T02:20:39.467Z,4.83
2019-03-03T02:23:12.275Z,4.10
2019-03-03T02:25:43.631Z,6.20
2019-03-03T02:28:14.928Z,4.97
2019-03-03T02:30:46.356Z,6.08
2019-03-03T02:33:17.711Z,6.08
2019-03-03T02:35:49.005Z,3.37
2019-03-03T02:38:20.218Z,3.95
2019-03-03T02:40:51.659Z,6.30
2019-03-03T02:43:22.887Z,7.60
2019-03-03T02:45:54.165Z,4.08
2019-03-03T02:48:25.461Z,4.95
2019-03-03T02:50:57.698Z,5.78
2019-03-03T02:53:28.934Z,5.45
2019-03-03T02:56:00.367Z,6.45
2019-03-03T02:58:31.665Z,5.12
2019-03-03T03:01:04.626Z,6.50
2019-03-03T03:03:36.040Z,6.20
2019-03-03T03:06:11.894Z,4.42
2019-03-03T03:08:44.846Z,4.67
2019-03-03T03:11:33.902Z,6.12
2019-03-03T03:14:06.761Z,8.18
2019-03-03T03:16:55.875Z,9.53
2019-03-03T03:19:31.440Z,6.72
2019-03-03T03:22:10.438Z,5.83
2019-03-03T03:24:46.063Z,5.70
2019-03-03T03:27:31.048Z,4.17
2019-03-03T03:30:16.244Z,4.67
2019-03-03T03:32:49.220Z,6.33
2019-03-03T03:35:37.154Z,7.45
2019-03-03T03:38:10.141Z,7.03
2019-03-03T03:40:48.822Z,11.03
2019-03-03T03:43:24.569Z,8.13
2019-03-03T03:46:03.680Z,7.65
2019-03-03T03:48:52.930Z,8.45
2019-03-03T03:51:24.131Z,7.93
2019-03-03T03:54:14.957Z,6.95
2019-03-03T03:56:57.676Z,9.25
2019-03-03T03:59:47.158Z,11.20
2019-03-03T04:02:36.082Z,9.95
2019-03-03T04:05:13.004Z,9.63
2019-03-03T04:07:48.666Z,8.88
2019-03-03T04:10:24.535Z,8.43
2019-03-03T04:13:01.446Z,6.87
2019-03-03T04:15:37.109Z,8.80
2019-03-03T04:18:12.719Z,8.10
2019-03-03T04:21:01.833Z,9.95
2019-03-03T04:23:47.941Z,10.82
2019-03-03T04:26:37.197Z,10.95
2019-03-03T04:29:26.010Z,9.25
2019-03-03T04:32:05.300Z,12.63
2019-03-03T04:34:54.255Z,10.35
2019-03-03T04:37:32.960Z,10.93
2019-03-03T04:40:07.275Z,8.48
2019-03-03T04:42:52.150Z,9.03
2019-03-03T04:45:27.577Z,9.63
2019-03-03T04:48:18.055Z,10.00
2019-03-03T04:50:50.936Z,11.22
2019-03-03T04:53:40.218Z,6.33
2019-03-03T04:56:23.622Z,8.60
2019-03-03T04:59:12.819Z,10.18
2019-03-03T05:02:02.366Z,13.43
2019-03-03T05:04:35.311Z,9.43
2019-03-03T05:07:08.179Z,10.95
2019-03-03T05:09:57.392Z,11.22
2019-03-03T05:12:46.348Z,8.15
2019-03-03T05:15:20.423Z,9.25
2019-03-03T05:17:56.057Z,10.35
2019-03-03T05:20:28.990Z,11.85
2019-03-03T05:23:00.295Z,11.63
2019-03-03T05:25:31.596Z,10.53
2019-03-03T05:28:02.833Z,10.13
2019-03-03T05:30:34.110Z,9.45
2019-03-03T05:33:06.382Z,9.80
2019-03-03T05:35:37.853Z,8.58
2019-03-03T05:38:09.802Z,8.75
2019-03-03T05:40:41.081Z,10.75
2019-03-03T05:43:12.438Z,12.40
2019-03-03T05:45:43.750Z,8.95
2019-03-03T05:48:14.983Z,9.38
2019-03-03T05:50:46.443Z,12.50
2019-03-03T05:53:17.684Z,11.03
2019-03-03T05:55:49.818Z,9.90
2019-03-03T05:58:21.109Z,15.30
2019-03-03T06:00:52.378Z,6.42
2019-03-03T06:03:23.680Z,9.18
2019-03-03T06:05:54.981Z,11.38
2019-03-03T06:08:26.326Z,12.07
2019-03-03T06:10:57.586Z,13.78
2019-03-03T06:13:28.818Z,12.25
2019-03-03T06:16:00.124Z,8.93
2019-03-03T06:18:31.346Z,6.95
2019-03-03T06:21:02.697Z,9.20
2019-03-03T06:23:33.957Z,8.53
2019-03-03T06:26:05.338Z,11.43
2019-03-03T06:28:36.594Z,12.33
2019-03-03T06:31:08.006Z,9.13
2019-03-03T06:33:39.228Z,7.20
2019-03-03T06:36:10.516Z,10.90
2019-03-03T06:38:41.748Z,8.48
2019-03-03T06:41:13.091Z,10.45
2019-03-03T06:43:44.419Z,10.32
2019-03-03T06:46:15.691Z,7.55
2019-03-03T06:48:46.993Z,11.38
2019-03-03T06:51:18.336Z,6.90
2019-03-03T06:53:49.568Z,9.15
2019-03-03T06:56:21.723Z,9.28
2019-03-03T06:58:52.957Z,8.00
2019-03-03T07:01:24.299Z,6.60
2019-03-03T07:03:55.647Z,8.98
2019-03-03T07:06:26.926Z,9.70
2019-03-03T07:08:58.201Z,9.23
2019-03-03T07:11:29.475Z,13.22
2019-03-03T07:14:00.808Z,6.83
2019-03-03T07:16:32.137Z,9.40
2019-03-03T07:19:03.362Z,9.43
2019-03-03T07:21:35.169Z,9.73
2019-03-03T07:24:06.569Z,9.20
2019-03-03T07:26:37.962Z,9.30
2019-03-03T07:29:09.208Z,13.90
2019-03-03T07:31:41.039Z,7.08
2019-03-03T07:34:12.285Z,9.78
2019-03-03T07:36:43.579Z,8.75
2019-03-03T07:39:17.905Z,12.93
2019-03-03T07:41:49.319Z,10.60
2019-03-03T07:44:22.197Z,7.60
2019-03-03T07:46:53.590Z,9.73
2019-03-03T07:49:25.095Z,9.35
2019-03-03T07:51:56.528Z,8.78
2019-03-03T07:54:27.926Z,7.60
2019-03-03T07:57:01.589Z,9.28
2019-03-03T07:59:32.846Z,10.58
2019-03-03T08:02:04.217Z,9.13
2019-03-03T08:04:35.526Z,7.72
2019-03-03T08:07:06.955Z,9.10
2019-03-03T08:09:38.197Z,8.68
2019-03-03T08:12:12.538Z,7.60
2019-03-03T08:14:43.813Z,9.68
2019-03-03T08:17:15.107Z,9.13
2019-03-03T08:19:46.480Z,10.05
2019-03-03T08:22:17.834Z,12.98
2019-03-03T08:24:51.358Z,5.60
2019-03-03T08:27:22.153Z,7.05
2019-03-03T08:29:54.668Z,8.68
2019-03-03T08:32:26.015Z,9.93
2019-03-03T08:34:57.334Z,7.55
2019-03-03T08:37:28.955Z,10.30
2019-03-03T08:40:00.413Z,7.78
2019-03-03T08:42:44.311Z,10.75
2019-03-03T08:45:17.408Z,7.22
2019-03-03T08:48:05.212Z,11.20
2019-03-03T08:50:56.110Z,9.88
2019-03-03T08:53:34.682Z,9.53
2019-03-03T08:56:16.663Z,8.78
2019-03-03T08:58:58.229Z,7.67
2019-03-03T09:01:33.863Z,6.55
2019-03-03T09:04:22.762Z,7.35
2019-03-03T09:06:56.888Z,4.80
2019-03-03T09:09:28.017Z,6.67
2019-03-03T09:12:19.513Z,9.90
2019-03-03T09:15:06.085Z,4.50
2019-03-03T09:17:41.514Z,7.92
2019-03-03T09:20:14.654Z,8.55
2019-03-03T09:22:56.820Z,6.00
2019-03-03T09:25:38.595Z,6.28
2019-03-03T09:28:09.755Z,6.72
2019-03-03T09:30:58.191Z,7.10
2019-03-03T09:33:42.079Z,6.97
2019-03-03T09:36:18.980Z,7.03
2019-03-03T09:38:51.954Z,6.08
2019-03-03T09:41:27.345Z,7.33
2019-03-03T09:44:16.284Z,5.42
2019-03-03T09:46:49.290Z,9.55
2019-03-03T09:49:23.255Z,3.87
2019-03-03T09:52:02.917Z,7.33
2019-03-03T09:54:38.496Z,8.03
2019-03-03T09:57:12.593Z,9.80
2019-03-03T09:59:46.481Z,8.88
2019-03-03T10:02:35.574Z,8.28
2019-03-03T10:05:21.850Z,6.53
2019-03-03T10:08:00.450Z,8.93
2019-03-03T10:10:37.500Z,6.58
2019-03-03T10:13:22.745Z,10.15
2019-03-03T10:15:55.702Z,5.58
2019-03-03T10:18:31.347Z,6.60
2019-03-03T10:21:04.320Z,7.15
2019-03-03T10:23:57.297Z,6.67
2019-03-03T10:26:39.429Z,7.92
2019-03-03T10:29:19.292Z,3.90
2019-03-03T10:31:50.512Z,5.92
2019-03-03T10:34:39.933Z,7.53
2019-03-03T10:37:14.459Z,7.87
2019-03-03T10:39:53.349Z,5.20
2019-03-03T10:42:27.895Z,4.65
2019-03-03T10:45:13.297Z,4.60
2019-03-03T10:47:49.003Z,4.05
2019-03-03T10:50:20.147Z,4.92
2019-03-03T10:53:01.516Z,5.78
2019-03-03T10:55:42.846Z,10.00
2019-03-03T10:58:15.911Z,7.85
2019-03-03T11:01:10.510Z,6.42
2019-03-03T11:03:46.021Z,7.22
2019-03-03T11:06:29.633Z,8.08
2019-03-03T11:09:17.641Z,6.10
2019-03-03T11:11:59.528Z,9.90
2019-03-03T11:14:36.487Z,7.30
2019-03-03T11:17:13.077Z,5.58
2019-03-03T11:20:04.433Z,4.30
2019-03-03T11:22:44.864Z,4.65
2019-03-03T11:25:20.828Z,6.65
2019-03-03T11:27:53.849Z,6.20
2019-03-03T11:30:42.060Z,6.47
2019-03-03T11:33:17.730Z,9.38
2019-03-03T11:35:51.777Z,3.85
2019-03-03T11:38:25.208Z,5.08
2019-03-03T11:41:01.296Z,7.50
2019-03-03T11:43:37.359Z,5.40
2019-03-03T11:46:25.464Z,8.15
2019-03-03T11:49:13.372Z,6.37
2019-03-03T11:51:50.355Z,7.58
2019-03-03T11:54:29.067Z,6.30
2019-03-03T11:57:02.314Z,4.92
2019-03-03T11:59:51.606Z,4.65
2019-03-03T12:02:28.013Z,4.40
2019-03-03T12:04:59.103Z,4.67
2019-03-03T12:07:44.582Z,5.72
2019-03-03T12:10:17.765Z,6.42
2019-03-03T12:12:59.545Z,4.92
2019-03-03T12:15:30.623Z,5.10
2019-03-03T12:18:09.441Z,3.60
2019-03-03T12:20:57.577Z,6.40
2019-03-03T12:23:33.306Z,9.35
2019-03-03T12:26:22.472Z,3.70
2019-03-03T12:28:59.252Z,5.22
2019-03-03T12:31:33.572Z,5.75
2019-03-03T12:34:18.773Z,6.33
2019-03-03T12:36:51.665Z,6.55
2019-03-03T12:39:30.969Z,7.80
2019-03-03T12:42:06.508Z,6.12
2019-03-03T12:44:44.995Z,5.12
2019-03-03T12:47:23.709Z,4.90
2019-03-03T12:50:02.846Z,6.00
2019-03-03T12:52:38.707Z,3.33
2019-03-03T12:55:17.840Z,4.35
2019-03-03T12:57:56.935Z,6.83
2019-03-03T13:00:30.003Z,4.75
2019-03-03T13:03:10.343Z,4.05
2019-03-03T13:05:44.463Z,5.37
2019-03-03T13:08:18.908Z,4.85
2019-03-03T13:10:57.664Z,5.45
2019-03-03T13:13:33.541Z,3.50
2019-03-03T13:16:07.522Z,7.67
2019-03-03T13:18:40.523Z,6.28
2019-03-03T13:21:29.888Z,4.40
2019-03-03T13:24:02.976Z,4.40
2019-03-03T13:26:42.624Z,3.92
2019-03-03T13:29:34.584Z,4.05
2019-03-03T13:32:13.720Z,4.15
2019-03-03T13:34:51.836Z,4.87
2019-03-03T13:37:43.355Z,5.05
2019-03-03T13:40:32.626Z,4.12
2019-03-03T13:43:04.016Z,5.50
2019-03-03T13:45:36.477Z,4.12
2019-03-03T13:48:08.142Z,4.58
2019-03-03T13:50:41.933Z,4.00
2019-03-03T13:53:13.381Z,6.40
2019-03-03T13:55:44.798Z,5.53
2019-03-03T13:58:16.148Z,6.10
2019-03-03T14:00:47.734Z,4.10
2019-03-03T14:03:19.882Z,5.30
2019-03-03T14:05:51.530Z,5.75
2019-03-03T14:08:25.498Z,5.53
2019-03-03T14:10:56.848Z,4.03
2019-03-03T14:13:28.342Z,4.08
2019-03-03T14:15:59.718Z,5.85
2019-03-03T14:18:31.036Z,3.30
2019-03-03T14:21:02.661Z,6.05
2019-03-03T14:23:34.199Z,4.97
2019-03-03T14:26:06.274Z,7.12
2019-03-03T14:28:40.433Z,5.72
2019-03-03T14:31:11.921Z,8.68
2019-03-03T14:33:43.248Z,6.80
2019-03-03T14:36:14.744Z,7.00
2019-03-03T14:38:47.475Z,5.60
2019-03-03T14:41:20.124Z,3.92
2019-03-03T14:43:51.407Z,8.53
2019-03-03T14:46:23.037Z,5.42
2019-03-03T14:48:54.526Z,5.10
2019-03-03T14:51:31.347Z,8.00
2019-03-03T14:54:02.709Z,6.08
2019-03-03T14:56:34.105Z,6.70
2019-03-03T14:59:05.483Z,7.62
2019-03-03T15:01:36.957Z,5.90
2019-03-03T15:04:08.223Z,6.58
2019-03-03T15:06:40.028Z,4.62
2019-03-03T15:09:21.924Z,6.00
2019-03-03T15:11:53.367Z,5.10
2019-03-03T15:14:44.530Z,3.45
2019-03-03T15:17:19.001Z,4.08
2019-03-03T15:19:50.407Z,7.45
2019-03-03T15:22:21.863Z,4.87
2019-03-03T15:24:53.305Z,5.80
2019-03-03T15:27:25.762Z,7.50
2019-03-03T15:30:10.471Z,4.33
2019-03-03T15:32:46.934Z,10.30
2019-03-03T15:35:18.826Z,5.15
2019-03-03T15:37:50.239Z,3.70
2019-03-03T15:40:25.376Z,5.55
2019-03-03T15:42:56.872Z,6.50
2019-03-03T15:45:31.628Z,3.27
2019-03-03T15:48:03.047Z,3.52
2019-03-03T15:50:35.545Z,4.40
2019-03-03T15:53:07.624Z,4.10
2019-03-03T15:55:39.134Z,5.30
2019-03-03T15:58:10.779Z,5.85
2019-03-03T16:00:43.807Z,4.62
2019-03-03T16:03:15.392Z,4.78
2019-03-03T16:05:47.566Z,5.35
2019-03-03T16:08:18.873Z,4.05
2019-03-03T16:10:50.199Z,5.55
2019-03-03T16:13:21.779Z,9.33
2019-03-03T16:15:53.171Z,5.40
2019-03-03T16:18:24.829Z,5.67
2019-03-03T16:20:56.434Z,3.60
2019-03-03T16:23:27.990Z,6.15
2019-03-03T16:26:00.088Z,4.85
2019-03-03T16:28:34.221Z,6.12
2019-03-03T16:31:05.725Z,4.72
2019-03-03T16:33:37.337Z,3.90
2019-03-03T16:36:08.838Z,4.08
2019-03-03T16:38:42.079Z,4.95
2019-03-03T16:41:13.855Z,6.47
2019-03-03T16:43:45.305Z,6.30
2019-03-03T16:46:16.735Z,6.33
2019-03-03T16:48:49.764Z,7.00
2019-03-03T16:51:22.834Z,6.90
2019-03-03T16:53:55.407Z,5.87
2019-03-03T16:56:29.609Z,6.80
2019-03-03T16:59:01.149Z,5.47
2019-03-03T17:01:32.736Z,6.30
2019-03-03T17:04:16.263Z,6.03
2019-03-03T17:06:47.629Z,4.22
2019-03-03T17:09:19.153Z,6.05
2019-03-03T17:11:50.573Z,5.25
2019-03-03T17:14:21.958Z,6.72
2019-03-03T17:16:53.226Z,7.00
2019-03-03T17:19:24.684Z,5.25
2019-03-03T17:21:56.136Z,4.47
2019-03-03T17:24:27.844Z,5.37
2019-03-03T17:27:01.254Z,4.83
2019-03-03T17:29:32.770Z,7.55
2019-03-03T17:32:05.169Z,5.67
2019-03-03T17:34:39.617Z,9.33
2019-03-03T17:37:11.191Z,4.03
2019-03-03T17:39:42.535Z,6.08
2019-03-03T17:42:13.796Z,6.65
2019-03-03T17:44:45.095Z,8.30
2019-03-03T17:47:16.484Z,5.70
2019-03-03T17:49:48.013Z,8.25
2019-03-03T17:52:19.406Z,4.75
2019-03-03T17:54:50.826Z,5.30
2019-03-03T17:57:22.147Z,7.85
2019-03-03T17:59:53.540Z,6.75
2019-03-03T18:02:24.952Z,4.53
2019-03-03T18:04:56.314Z,4.53
2019-03-03T18:07:28.449Z,4.67
2019-03-03T18:09:59.758Z,3.80
2019-03-03T18:12:31.127Z,4.45
2019-03-03T18:15:02.444Z,5.50
2019-03-03T18:17:33.759Z,4.90
2019-03-03T18:20:09.581Z,6.70
2019-03-03T18:22:41.101Z,5.15
2019-03-03T18:25:15.837Z,8.80
2019-03-03T18:27:48.637Z,5.12
2019-03-03T18:30:25.405Z,5.37
2019-03-03T18:32:56.718Z,7.65
2019-03-03T18:35:28.272Z,5.33
2019-03-03T18:37:59.532Z,6.65
2019-03-03T18:40:30.892Z,5.35
2019-03-03T18:43:03.353Z,5.97
2019-03-03T18:45:34.768Z,5.65
2019-03-03T18:48:06.266Z,6.47
2019-03-03T18:50:37.711Z,5.92
2019-03-03T18:53:33.528Z,6.33
2019-03-03T18:56:05.032Z,5.80
2019-03-03T18:58:36.371Z,5.28
2019-03-03T19:01:07.995Z,5.45
2019-03-03T19:03:39.798Z,7.65
2019-03-03T19:06:11.150Z,6.22
2019-03-03T19:08:42.574Z,5.45
2019-03-03T19:11:14.019Z,4.78
2019-03-03T19:13:45.359Z,5.42
2019-03-03T19:16:16.746Z,6.17
2019-03-03T19:18:48.001Z,5.92
2019-03-03T19:21:19.381Z,5.47
2019-03-03T19:23:50.732Z,5.42
2019-03-03T19:26:22.386Z,6.50
2019-03-03T19:28:53.708Z,6.53
2019-03-03T19:31:25.027Z,6.30
2019-03-03T19:33:58.589Z,5.90
2019-03-03T19:36:31.631Z,5.08
2019-03-03T19:39:03.055Z,6.92
2019-03-03T19:41:36.153Z,4.58
2019-03-03T19:44:07.483Z,4.37
2019-03-03T19:46:40.371Z,5.65
2019-03-03T19:49:11.694Z,5.60
2019-03-03T19:51:43.065Z,5.25
2019-03-03T19:54:17.263Z,4.53
2019-03-03T19:56:48.659Z,5.47
2019-03-03T19:59:20.052Z,6.17
2019-03-03T20:01:51.532Z,7.62
2019-03-03T20:04:22.903Z,5.70
2019-03-03T20:06:54.275Z,4.85
2019-03-03T20:09:25.576Z,7.70
2019-03-03T20:11:59.964Z,6.17
2019-03-03T20:14:31.477Z,7.65
2019-03-03T20:17:02.812Z,5.78
2019-03-03T20:19:34.198Z,4.28
2019-03-03T20:22:05.583Z,5.25
2019-03-03T20:24:37.035Z,6.30
2019-03-03T20:27:08.590Z,6.25
2019-03-03T20:29:40.167Z,6.00
2019-03-03T20:32:11.566Z,5.35
2019-03-03T20:34:43.054Z,7.62
2019-03-03T20:37:14.387Z,5.90
2019-03-03T20:39:45.711Z,5.50
2019-03-03T20:42:18.570Z,7.42
2019-03-03T20:44:49.929Z,4.75
2019-03-03T20:47:21.204Z,5.45
2019-03-03T20:49:55.383Z,8.58
2019-03-03T20:52:28.767Z,4.08
2019-03-03T20:54:59.786Z,4.47
2019-03-03T20:57:31.055Z,5.25
2019-03-03T21:00:02.366Z,5.28
2019-03-03T21:02:33.949Z,4.50
2019-03-03T21:05:07.748Z,5.10
2019-03-03T21:07:40.283Z,6.15
2019-03-03T21:10:17.997Z,4.28
2019-03-03T21:12:49.539Z,6.10
2019-03-03T21:15:20.909Z,4.62
2019-03-03T21:17:52.374Z,5.22
2019-03-03T21:20:24.187Z,6.12
2019-03-03T21:22:55.652Z,5.70
2019-03-03T21:25:27.000Z,6.50
2019-03-03T21:27:58.423Z,7.50
2019-03-03T21:30:30.241Z,5.97
2019-03-03T21:33:01.630Z,6.00
2019-03-03T21:35:32.877Z,3.80
2019-03-03T21:38:04.446Z,5.40
2019-03-03T21:40:35.858Z,5.42
2019-03-03T21:43:07.214Z,5.87
2019-03-03T21:45:38.583Z,5.47
2019-03-03T21:48:10.005Z,4.10
2019-03-03T21:50:43.342Z,4.15
2019-03-03T21:53:14.742Z,3.62
2019-03-03T21:55:46.177Z,5.33
2019-03-03T21:58:17.483Z,3.45
2019-03-03T22:00:48.988Z,3.95
2019-03-03T22:03:20.481Z,3.52
2019-03-03T22:05:51.739Z,4.17
2019-03-03T22:08:23.204Z,6.05
2019-03-03T22:10:56.120Z,5.10
2019-03-03T22:13:27.445Z,2.58
2019-03-03T22:15:58.703Z,2.62
2019-03-03T22:18:30.087Z,3.98
2019-03-03T22:21:01.351Z,6.50
2019-03-03T22:23:32.654Z,4.22
2019-03-03T22:26:04.044Z,5.05
2019-03-03T22:28:36.433Z,7.85
2019-03-03T22:31:11.508Z,4.45
2019-03-03T22:33:42.889Z,4.92
2019-03-03T22:36:15.094Z,5.45
2019-03-03T22:38:46.571Z,4.80
2019-03-03T22:41:18.172Z,4.65
2019-03-03T22:43:49.523Z,4.05
2019-03-03T22:46:20.830Z,5.60
2019-03-03T22:48:52.110Z,4.03
2019-03-03T22:51:23.467Z,3.92
2019-03-03T22:53:54.744Z,5.10
2019-03-03T22:56:26.107Z,5.35
2019-03-03T22:58:57.391Z,5.65
2019-03-03T23:01:29.029Z,5.67
2019-03-03T23:04:08.089Z,3.62
2019-03-03T23:07:15.448Z,6.78
2019-03-03T23:10:38.672Z,6.40
2019-03-03T23:13:29.729Z,4.92
2019-03-03T23:16:25.612Z,3.92
2019-03-03T23:19:25.075Z,4.78
2019-03-03T23:22:23.776Z,5.50
2019-03-03T23:25:26.909Z,4.10
2019-03-03T23:27:58.145Z,6.00
2019-03-03T23:30:29.565Z,5.92
2019-03-03T23:33:00.801Z,6.35
2019-03-03T23:35:32.270Z,4.40
2019-03-03T23:38:03.577Z,4.92
2019-03-03T23:40:34.937Z,4.97
2019-03-03T23:43:06.461Z,5.42
2019-03-03T23:45:38.818Z,5.10
2019-03-03T23:48:10.046Z,5.70
2019-03-03T23:50:41.421Z,7.55
2019-03-03T23:53:13.741Z,4.65
2019-03-03T23:55:45.075Z,3.27
2019-03-03T23:58:16.309Z,6.87
